sensor_id;sensor_type;location;lat;lon;timestamp;pressure;altitude;pressure_sealevel;temperature;humidity
56807;BME280;42687;42.524;12.052;2023-05-23T00:00:58;96515.34;;;11.92;100.00
56807;BME280;42687;42.524;12.052;2023-05-23T00:03:25;96508.75;;;11.99;100.00
56807;BME280;42687;42.524;12.052;2023-05-23T00:05:51;96501.34;;;12.04;100.00
56807;BME280;42687;42.524;12.052;2023-05-23T00:08:17;96509.78;;;12.09;100.00
56807;BME280;42687;42.524;12.052;2023-05-23T00:10:44;96505.06;;;12.14;100.00
56807;BME280;42687;42.524;12.052;2023-05-23T00:13:10;96505.47;;;12.21;100.00
56807;BME280;42687;42.524;12.052;2023-05-23T00:15:40;96512.13;;;12.27;100.00
56807;BME280;42687;42.524;12.052;2023-05-23T00:18:06;96506.88;;;12.27;100.00
56807;BME280;42687;42.524;12.052;2023-05-23T00:20:39;96502.31;;;12.29;100.00
56807;BME280;42687;42.524;12.052;2023-05-23T00:23:06;96502.66;;;12.24;100.00
56807;BME280;42687;42.524;12.052;2023-05-23T00:25:33;96508.00;;;12.23;100.00
56807;BME280;42687;42.524;12.052;2023-05-23T00:28:03;96508.97;;;12.22;100.00
56807;BME280;42687;42.524;12.052;2023-05-23T00:30:30;96509.81;;;12.22;100.00
56807;BME280;42687;42.524;12.052;2023-05-23T00:32:56;96511.38;;;12.25;100.00
56807;BME280;42687;42.524;12.052;2023-05-23T00:35:23;96506.00;;;12.26;100.00
56807;BME280;42687;42.524;12.052;2023-05-23T00:37:49;96503.78;;;12.33;100.00
56807;BME280;42687;42.524;12.052;2023-05-23T00:40:20;96499.69;;;12.29;100.00
56807;BME280;42687;42.524;12.052;2023-05-23T00:42:46;96502.44;;;12.27;100.00
56807;BME280;42687;42.524;12.052;2023-05-23T00:45:12;96504.44;;;12.24;100.00
56807;BME280;42687;42.524;12.052;2023-05-23T00:47:39;96496.84;;;12.19;100.00
56807;BME280;42687;42.524;12.052;2023-05-23T00:50:11;96504.13;;;12.15;100.00
56807;BME280;42687;42.524;12.052;2023-05-23T00:52:37;96500.00;;;12.11;100.00
56807;BME280;42687;42.524;12.052;2023-05-23T00:55:04;96500.22;;;12.08;100.00
56807;BME280;42687;42.524;12.052;2023-05-23T00:57:30;96495.91;;;12.07;100.00
56807;BME280;42687;42.524;12.052;2023-05-23T01:00:02;96493.44;;;12.04;100.00
56807;BME280;42687;42.524;12.052;2023-05-23T01:02:28;96491.88;;;12.01;100.00
56807;BME280;42687;42.524;12.052;2023-05-23T01:04:56;96487.47;;;12.02;100.00
56807;BME280;42687;42.524;12.052;2023-05-23T01:07:22;96489.34;;;12.00;100.00
56807;BME280;42687;42.524;12.052;2023-05-23T01:09:48;96490.31;;;11.99;100.00
56807;BME280;42687;42.524;12.052;2023-05-23T01:15:07;96492.38;;;11.94;100.00
56807;BME280;42687;42.524;12.052;2023-05-23T01:17:43;96489.94;;;11.91;100.00
56807;BME280;42687;42.524;12.052;2023-05-23T01:20:20;96492.03;;;11.85;100.00
56807;BME280;42687;42.524;12.052;2023-05-23T01:23:02;96495.00;;;11.81;100.00
56807;BME280;42687;42.524;12.052;2023-05-23T01:28:27;96498.78;;;11.77;100.00
56807;BME280;42687;42.524;12.052;2023-05-23T01:30:56;96494.56;;;11.74;100.00
56807;BME280;42687;42.524;12.052;2023-05-23T01:33:24;96493.81;;;11.72;100.00
56807;BME280;42687;42.524;12.052;2023-05-23T01:35:50;96494.78;;;11.71;100.00
56807;BME280;42687;42.524;12.052;2023-05-23T01:38:16;96489.91;;;11.65;100.00
56807;BME280;42687;42.524;12.052;2023-05-23T01:40:42;96492.75;;;11.62;100.00
56807;BME280;42687;42.524;12.052;2023-05-23T01:43:08;96487.69;;;11.59;100.00
56807;BME280;42687;42.524;12.052;2023-05-23T01:45:35;96494.97;;;11.55;100.00
56807;BME280;42687;42.524;12.052;2023-05-23T01:48:01;96485.88;;;11.46;100.00
56807;BME280;42687;42.524;12.052;2023-05-23T01:50:28;96487.03;;;11.42;100.00
56807;BME280;42687;42.524;12.052;2023-05-23T01:52:56;96493.13;;;11.43;100.00
56807;BME280;42687;42.524;12.052;2023-05-23T01:55:22;96491.88;;;11.48;100.00
56807;BME280;42687;42.524;12.052;2023-05-23T01:57:51;96487.06;;;11.55;100.00
56807;BME280;42687;42.524;12.052;2023-05-23T02:00:18;96485.97;;;11.58;100.00
56807;BME280;42687;42.524;12.052;2023-05-23T02:02:45;96484.88;;;11.62;100.00
56807;BME280;42687;42.524;12.052;2023-05-23T02:05:11;96481.78;;;11.68;100.00
56807;BME280;42687;42.524;12.052;2023-05-23T02:07:36;96474.84;;;11.67;100.00
56807;BME280;42687;42.524;12.052;2023-05-23T02:10:03;96479.66;;;11.60;100.00
56807;BME280;42687;42.524;12.052;2023-05-23T02:12:29;96486.59;;;11.48;100.00
56807;BME280;42687;42.524;12.052;2023-05-23T02:14:55;96480.81;;;11.43;100.00
56807;BME280;42687;42.524;12.052;2023-05-23T02:17:21;96477.53;;;11.40;100.00
56807;BME280;42687;42.524;12.052;2023-05-23T02:19:48;96478.88;;;11.32;100.00
56807;BME280;42687;42.524;12.052;2023-05-23T02:22:14;96478.69;;;11.35;100.00
56807;BME280;42687;42.524;12.052;2023-05-23T02:24:40;96484.13;;;11.32;100.00
56807;BME280;42687;42.524;12.052;2023-05-23T02:27:06;96482.47;;;11.31;100.00
56807;BME280;42687;42.524;12.052;2023-05-23T02:29:32;96442.59;;;11.10;100.00
56807;BME280;42687;42.524;12.052;2023-05-23T02:31:58;96482.03;;;11.38;100.00
56807;BME280;42687;42.524;12.052;2023-05-23T02:34:24;96481.75;;;11.42;100.00
56807;BME280;42687;42.524;12.052;2023-05-23T02:36:50;96477.22;;;11.44;100.00
56807;BME280;42687;42.524;12.052;2023-05-23T02:39:16;96482.59;;;11.43;100.00
56807;BME280;42687;42.524;12.052;2023-05-23T02:41:42;96477.66;;;11.38;100.00
56807;BME280;42687;42.524;12.052;2023-05-23T02:44:08;96488.47;;;11.33;100.00
56807;BME280;42687;42.524;12.052;2023-05-23T02:46:33;96454.91;;;11.10;100.00
56807;BME280;42687;42.524;12.052;2023-05-23T02:48:59;96489.59;;;11.29;100.00
56807;BME280;42687;42.524;12.052;2023-05-23T02:51:25;96481.22;;;11.37;100.00
56807;BME280;42687;42.524;12.052;2023-05-23T02:53:51;96468.16;;;11.35;100.00
56807;BME280;42687;42.524;12.052;2023-05-23T02:56:16;96478.25;;;11.42;100.00
56807;BME280;42687;42.524;12.052;2023-05-23T02:58:43;96475.19;;;11.35;100.00
56807;BME280;42687;42.524;12.052;2023-05-23T03:01:09;96484.28;;;11.16;100.00
56807;BME280;42687;42.524;12.052;2023-05-23T03:03:34;96483.94;;;11.08;100.00
56807;BME280;42687;42.524;12.052;2023-05-23T03:06:03;96487.16;;;10.99;100.00
56807;BME280;42687;42.524;12.052;2023-05-23T03:08:35;96496.22;;;10.95;100.00
56807;BME280;42687;42.524;12.052;2023-05-23T03:11:01;96493.69;;;10.93;100.00
56807;BME280;42687;42.524;12.052;2023-05-23T03:13:27;96493.56;;;10.95;100.00
56807;BME280;42687;42.524;12.052;2023-05-23T03:15:53;96475.66;;;10.87;100.00
56807;BME280;42687;42.524;12.052;2023-05-23T03:18:18;96490.94;;;10.95;100.00
56807;BME280;42687;42.524;12.052;2023-05-23T03:20:44;96481.78;;;10.88;100.00
56807;BME280;42687;42.524;12.052;2023-05-23T03:23:10;96484.31;;;10.89;100.00
56807;BME280;42687;42.524;12.052;2023-05-23T03:25:36;96496.09;;;10.96;100.00
56807;BME280;42687;42.524;12.052;2023-05-23T03:28:02;96497.91;;;10.96;100.00
56807;BME280;42687;42.524;12.052;2023-05-23T03:30:27;96497.59;;;11.00;100.00
56807;BME280;42687;42.524;12.052;2023-05-23T03:32:53;96503.72;;;11.01;100.00
56807;BME280;42687;42.524;12.052;2023-05-23T03:35:20;96499.41;;;11.00;100.00
56807;BME280;42687;42.524;12.052;2023-05-23T03:37:45;96498.56;;;10.99;100.00
56807;BME280;42687;42.524;12.052;2023-05-23T03:40:11;96496.41;;;10.92;100.00
56807;BME280;42687;42.524;12.052;2023-05-23T03:42:38;96502.81;;;10.88;100.00
56807;BME280;42687;42.524;12.052;2023-05-23T03:45:04;96507.41;;;10.84;100.00
56807;BME280;42687;42.524;12.052;2023-05-23T03:47:30;96493.06;;;10.75;100.00
56807;BME280;42687;42.524;12.052;2023-05-23T03:49:56;96465.75;;;10.63;100.00
56807;BME280;42687;42.524;12.052;2023-05-23T03:52:22;96493.03;;;10.90;100.00
56807;BME280;42687;42.524;12.052;2023-05-23T03:54:48;96498.66;;;10.83;100.00
56807;BME280;42687;42.524;12.052;2023-05-23T03:57:13;96496.44;;;10.77;100.00
56807;BME280;42687;42.524;12.052;2023-05-23T03:59:39;96497.47;;;10.75;100.00
56807;BME280;42687;42.524;12.052;2023-05-23T04:02:05;96493.59;;;10.80;100.00
56807;BME280;42687;42.524;12.052;2023-05-23T04:04:31;96496.25;;;10.80;100.00
56807;BME280;42687;42.524;12.052;2023-05-23T04:06:58;96501.28;;;10.83;100.00
56807;BME280;42687;42.524;12.052;2023-05-23T04:09:24;96503.19;;;10.81;100.00
56807;BME280;42687;42.524;12.052;2023-05-23T04:11:50;96505.81;;;10.81;100.00
56807;BME280;42687;42.524;12.052;2023-05-23T04:14:17;96503.19;;;10.81;100.00
56807;BME280;42687;42.524;12.052;2023-05-23T04:16:44;96504.03;;;10.82;100.00
56807;BME280;42687;42.524;12.052;2023-05-23T04:19:10;96515.41;;;10.82;100.00
56807;BME280;42687;42.524;12.052;2023-05-23T04:21:36;96510.31;;;10.94;100.00
56807;BME280;42687;42.524;12.052;2023-05-23T04:24:02;96518.25;;;11.07;100.00
56807;BME280;42687;42.524;12.052;2023-05-23T04:26:28;96505.00;;;11.08;100.00
56807;BME280;42687;42.524;12.052;2023-05-23T04:28:54;96509.13;;;11.12;100.00
56807;BME280;42687;42.524;12.052;2023-05-23T04:31:21;96515.88;;;11.16;100.00
56807;BME280;42687;42.524;12.052;2023-05-23T04:33:47;96512.31;;;11.17;100.00
56807;BME280;42687;42.524;12.052;2023-05-23T04:36:13;96510.44;;;11.20;100.00
56807;BME280;42687;42.524;12.052;2023-05-23T04:38:39;96506.09;;;11.18;100.00
56807;BME280;42687;42.524;12.052;2023-05-23T04:41:06;96513.69;;;11.23;100.00
56807;BME280;42687;42.524;12.052;2023-05-23T04:43:35;96500.03;;;11.31;100.00
56807;BME280;42687;42.524;12.052;2023-05-23T04:46:09;96510.06;;;11.39;100.00
56807;BME280;42687;42.524;12.052;2023-05-23T04:48:36;96506.38;;;11.41;100.00
56807;BME280;42687;42.524;12.052;2023-05-23T04:51:03;96512.19;;;11.46;100.00
56807;BME280;42687;42.524;12.052;2023-05-23T04:53:35;96522.78;;;11.59;100.00
56807;BME280;42687;42.524;12.052;2023-05-23T04:56:01;96514.25;;;11.68;100.00
56807;BME280;42687;42.524;12.052;2023-05-23T04:58:27;96521.22;;;11.82;100.00
56807;BME280;42687;42.524;12.052;2023-05-23T05:00:53;96519.56;;;11.94;100.00
56807;BME280;42687;42.524;12.052;2023-05-23T05:03:18;96523.09;;;12.08;100.00
56807;BME280;42687;42.524;12.052;2023-05-23T05:05:44;96523.81;;;12.23;100.00
56807;BME280;42687;42.524;12.052;2023-05-23T05:08:10;96523.94;;;12.34;100.00
56807;BME280;42687;42.524;12.052;2023-05-23T05:10:39;96527.63;;;12.44;100.00
56807;BME280;42687;42.524;12.052;2023-05-23T05:13:05;96520.03;;;12.52;100.00
56807;BME280;42687;42.524;12.052;2023-05-23T05:15:31;96521.69;;;12.66;100.00
56807;BME280;42687;42.524;12.052;2023-05-23T05:17:57;96520.94;;;12.77;100.00
56807;BME280;42687;42.524;12.052;2023-05-23T05:20:23;96519.22;;;12.89;100.00
56807;BME280;42687;42.524;12.052;2023-05-23T05:22:57;96525.44;;;13.01;100.00
56807;BME280;42687;42.524;12.052;2023-05-23T05:25:23;96519.25;;;13.13;100.00
56807;BME280;42687;42.524;12.052;2023-05-23T05:27:49;96515.84;;;13.24;100.00
56807;BME280;42687;42.524;12.052;2023-05-23T05:30:15;96507.34;;;13.32;100.00
56807;BME280;42687;42.524;12.052;2023-05-23T05:32:41;96511.13;;;13.41;100.00
56807;BME280;42687;42.524;12.052;2023-05-23T05:35:10;96515.66;;;13.51;100.00
56807;BME280;42687;42.524;12.052;2023-05-23T05:37:38;96511.25;;;13.63;100.00
56807;BME280;42687;42.524;12.052;2023-05-23T05:40:05;96513.22;;;13.73;100.00
56807;BME280;42687;42.524;12.052;2023-05-23T05:42:32;96514.06;;;13.84;100.00
56807;BME280;42687;42.524;12.052;2023-05-23T05:44:58;96509.75;;;13.95;100.00
56807;BME280;42687;42.524;12.052;2023-05-23T05:47:24;96507.78;;;14.10;100.00
56807;BME280;42687;42.524;12.052;2023-05-23T05:49:50;96512.72;;;14.26;100.00
56807;BME280;42687;42.524;12.052;2023-05-23T05:52:16;96505.75;;;14.59;100.00
56807;BME280;42687;42.524;12.052;2023-05-23T05:54:41;96499.41;;;15.39;100.00
56807;BME280;42687;42.524;12.052;2023-05-23T05:57:07;96502.16;;;16.24;100.00
56807;BME280;42687;42.524;12.052;2023-05-23T05:59:33;96504.34;;;17.02;100.00
56807;BME280;42687;42.524;12.052;2023-05-23T06:01:58;96502.31;;;17.74;100.00
56807;BME280;42687;42.524;12.052;2023-05-23T06:04:24;96510.09;;;18.34;100.00
56807;BME280;42687;42.524;12.052;2023-05-23T06:06:50;96518.78;;;18.83;100.00
56807;BME280;42687;42.524;12.052;2023-05-23T06:09:16;96521.91;;;19.34;100.00
56807;BME280;42687;42.524;12.052;2023-05-23T06:11:42;96511.59;;;19.86;100.00
56807;BME280;42687;42.524;12.052;2023-05-23T06:14:08;96505.47;;;20.38;100.00
56807;BME280;42687;42.524;12.052;2023-05-23T06:16:34;96518.28;;;20.78;100.00
56807;BME280;42687;42.524;12.052;2023-05-23T06:19:00;96516.41;;;21.13;100.00
56807;BME280;42687;42.524;12.052;2023-05-23T06:21:25;96522.25;;;21.68;100.00
56807;BME280;42687;42.524;12.052;2023-05-23T06:23:52;96523.47;;;21.98;100.00
56807;BME280;42687;42.524;12.052;2023-05-23T06:26:18;96528.66;;;22.25;100.00
56807;BME280;42687;42.524;12.052;2023-05-23T06:28:43;96528.66;;;22.41;100.00
56807;BME280;42687;42.524;12.052;2023-05-23T06:31:09;96516.44;;;22.47;100.00
56807;BME280;42687;42.524;12.052;2023-05-23T06:33:35;96526.94;;;22.65;100.00
56807;BME280;42687;42.524;12.052;2023-05-23T06:36:01;96520.25;;;22.69;100.00
56807;BME280;42687;42.524;12.052;2023-05-23T06:38:28;96518.56;;;22.76;100.00
56807;BME280;42687;42.524;12.052;2023-05-23T06:40:55;96515.34;;;22.89;100.00
56807;BME280;42687;42.524;12.052;2023-05-23T06:43:21;96530.31;;;23.23;100.00
56807;BME280;42687;42.524;12.052;2023-05-23T06:45:47;96537.06;;;23.51;100.00
56807;BME280;42687;42.524;12.052;2023-05-23T06:48:13;96528.69;;;23.45;100.00
56807;BME280;42687;42.524;12.052;2023-05-23T06:50:39;96532.63;;;23.66;100.00
56807;BME280;42687;42.524;12.052;2023-05-23T06:53:06;96534.81;;;23.86;100.00
56807;BME280;42687;42.524;12.052;2023-05-23T06:55:32;96533.00;;;23.86;100.00
56807;BME280;42687;42.524;12.052;2023-05-23T06:58:01;96526.41;;;23.97;100.00
56807;BME280;42687;42.524;12.052;2023-05-23T07:00:29;96535.69;;;24.09;100.00
56807;BME280;42687;42.524;12.052;2023-05-23T07:02:56;96523.16;;;24.02;100.00
56807;BME280;42687;42.524;12.052;2023-05-23T07:05:28;96537.59;;;24.24;100.00
56807;BME280;42687;42.524;12.052;2023-05-23T07:07:54;96535.13;;;24.52;99.30
56807;BME280;42687;42.524;12.052;2023-05-23T07:10:20;96542.09;;;24.61;98.90
56807;BME280;42687;42.524;12.052;2023-05-23T07:12:46;96542.81;;;24.78;98.18
56807;BME280;42687;42.524;12.052;2023-05-23T07:15:12;96530.38;;;24.77;97.85
56807;BME280;42687;42.524;12.052;2023-05-23T07:17:39;96540.22;;;24.85;98.60
56807;BME280;42687;42.524;12.052;2023-05-23T07:20:06;96541.81;;;24.94;97.55
56807;BME280;42687;42.524;12.052;2023-05-23T07:22:32;96545.53;;;24.93;97.61
56807;BME280;42687;42.524;12.052;2023-05-23T07:24:58;96547.94;;;25.03;97.20
56807;BME280;42687;42.524;12.052;2023-05-23T07:27:25;96544.31;;;25.11;96.41
56807;BME280;42687;42.524;12.052;2023-05-23T07:29:51;96532.34;;;25.13;95.39
56807;BME280;42687;42.524;12.052;2023-05-23T07:32:17;96542.19;;;25.36;94.83
56807;BME280;42687;42.524;12.052;2023-05-23T07:34:43;96538.81;;;25.49;93.76
56807;BME280;42687;42.524;12.052;2023-05-23T07:37:09;96540.28;;;25.52;92.81
56807;BME280;42687;42.524;12.052;2023-05-23T07:39:35;96528.22;;;25.62;91.30
56807;BME280;42687;42.524;12.052;2023-05-23T07:42:00;96542.50;;;25.85;90.93
56807;BME280;42687;42.524;12.052;2023-05-23T07:44:27;96549.34;;;26.02;89.90
56807;BME280;42687;42.524;12.052;2023-05-23T07:46:53;96531.47;;;26.16;88.24
56807;BME280;42687;42.524;12.052;2023-05-23T07:49:19;96540.34;;;25.95;87.66
56807;BME280;42687;42.524;12.052;2023-05-23T07:51:45;96546.94;;;25.92;87.72
56807;BME280;42687;42.524;12.052;2023-05-23T07:54:11;96549.44;;;25.72;88.69
56807;BME280;42687;42.524;12.052;2023-05-23T07:56:36;96526.81;;;25.67;88.41
56807;BME280;42687;42.524;12.052;2023-05-23T07:59:05;96549.09;;;26.19;87.35
56807;BME280;42687;42.524;12.052;2023-05-23T08:01:32;96553.25;;;26.43;85.08
56807;BME280;42687;42.524;12.052;2023-05-23T08:03:58;96542.25;;;26.44;84.00
56807;BME280;42687;42.524;12.052;2023-05-23T08:06:24;96539.00;;;26.49;82.70
56807;BME280;42687;42.524;12.052;2023-05-23T08:08:50;96549.00;;;26.55;82.64
56807;BME280;42687;42.524;12.052;2023-05-23T08:11:15;96545.25;;;26.56;80.58
56807;BME280;42687;42.524;12.052;2023-05-23T08:13:41;96552.03;;;26.45;81.36
56807;BME280;42687;42.524;12.052;2023-05-23T08:16:07;96545.16;;;26.43;81.89
56807;BME280;42687;42.524;12.052;2023-05-23T08:18:33;96546.75;;;26.59;81.03
56807;BME280;42687;42.524;12.052;2023-05-23T08:20:58;96541.00;;;26.97;79.71
56807;BME280;42687;42.524;12.052;2023-05-23T08:23:24;96551.53;;;27.20;77.42
56807;BME280;42687;42.524;12.052;2023-05-23T08:25:51;96544.38;;;27.41;76.48
56807;BME280;42687;42.524;12.052;2023-05-23T08:28:17;96546.63;;;27.37;75.49
56807;BME280;42687;42.524;12.052;2023-05-23T08:30:43;96544.28;;;27.27;75.26
56807;BME280;42687;42.524;12.052;2023-05-23T08:33:08;96549.72;;;27.34;74.47
56807;BME280;42687;42.524;12.052;2023-05-23T08:35:34;96542.66;;;27.33;74.83
56807;BME280;42687;42.524;12.052;2023-05-23T08:38:05;96540.69;;;27.49;74.26
56807;BME280;42687;42.524;12.052;2023-05-23T08:40:34;96551.53;;;27.69;73.73
56807;BME280;42687;42.524;12.052;2023-05-23T08:43:01;96546.97;;;27.69;73.08
56807;BME280;42687;42.524;12.052;2023-05-23T08:45:27;96550.69;;;27.55;73.80
56807;BME280;42687;42.524;12.052;2023-05-23T08:47:55;96558.75;;;27.48;74.08
56807;BME280;42687;42.524;12.052;2023-05-23T08:50:29;96563.56;;;27.59;72.57
56807;BME280;42687;42.524;12.052;2023-05-23T08:52:58;96564.78;;;27.50;72.45
56807;BME280;42687;42.524;12.052;2023-05-23T08:55:25;96567.22;;;27.38;72.22
56807;BME280;42687;42.524;12.052;2023-05-23T08:57:52;96554.31;;;27.34;72.51
56807;BME280;42687;42.524;12.052;2023-05-23T09:00:19;96559.56;;;27.42;72.55
56807;BME280;42687;42.524;12.052;2023-05-23T09:02:45;96554.78;;;27.51;72.32
56807;BME280;42687;42.524;12.052;2023-05-23T09:05:12;96539.69;;;27.21;72.40
56807;BME280;42687;42.524;12.052;2023-05-23T09:07:38;96563.72;;;27.44;72.87
56807;BME280;42687;42.524;12.052;2023-05-23T09:10:06;96557.31;;;27.52;72.70
56807;BME280;42687;42.524;12.052;2023-05-23T09:12:36;96556.94;;;27.62;72.57
56807;BME280;42687;42.524;12.052;2023-05-23T09:15:04;96552.84;;;27.86;71.21
56807;BME280;42687;42.524;12.052;2023-05-23T09:17:31;96560.69;;;27.74;71.52
56807;BME280;42687;42.524;12.052;2023-05-23T09:20:01;96562.81;;;27.79;71.83
56807;BME280;42687;42.524;12.052;2023-05-23T09:22:29;96559.91;;;27.87;71.77
56807;BME280;42687;42.524;12.052;2023-05-23T09:24:56;96563.31;;;28.03;71.32
56807;BME280;42687;42.524;12.052;2023-05-23T09:27:22;96555.59;;;28.06;71.49
56807;BME280;42687;42.524;12.052;2023-05-23T09:29:49;96557.25;;;28.01;72.01
56807;BME280;42687;42.524;12.052;2023-05-23T09:32:16;96553.06;;;27.98;72.07
56807;BME280;42687;42.524;12.052;2023-05-23T09:35:03;96548.59;;;27.15;74.33
56807;BME280;42687;42.524;12.052;2023-05-23T09:37:30;96549.47;;;26.37;76.09
56807;BME280;42687;42.524;12.052;2023-05-23T09:39:59;96539.31;;;25.74;76.42
56807;BME280;42687;42.524;12.052;2023-05-23T09:42:31;96543.22;;;25.72;73.84
56807;BME280;42687;42.524;12.052;2023-05-23T09:44:57;96546.94;;;25.92;73.39
56807;BME280;42687;42.524;12.052;2023-05-23T09:47:23;96543.78;;;26.25;72.19
56807;BME280;42687;42.524;12.052;2023-05-23T09:49:49;96541.28;;;26.52;71.70
56807;BME280;42687;42.524;12.052;2023-05-23T09:52:16;96544.44;;;26.56;70.79
56807;BME280;42687;42.524;12.052;2023-05-23T09:54:45;96549.59;;;26.51;70.62
56807;BME280;42687;42.524;12.052;2023-05-23T09:57:13;96538.69;;;26.66;70.54
56807;BME280;42687;42.524;12.052;2023-05-23T09:59:40;96541.91;;;26.76;70.39
56807;BME280;42687;42.524;12.052;2023-05-23T10:02:10;96543.25;;;26.93;69.78
56807;BME280;42687;42.524;12.052;2023-05-23T10:04:38;96544.88;;;27.23;69.79
56807;BME280;42687;42.524;12.052;2023-05-23T10:07:19;96545.88;;;27.50;68.92
56807;BME280;42687;42.524;12.052;2023-05-23T10:09:51;96545.94;;;27.70;68.87
56807;BME280;42687;42.524;12.052;2023-05-23T10:15:01;96543.03;;;27.78;69.04
56807;BME280;42687;42.524;12.052;2023-05-23T10:20:24;96545.59;;;27.87;69.98
56807;BME280;42687;42.524;12.052;2023-05-23T10:22:51;96545.44;;;28.02;70.01
56807;BME280;42687;42.524;12.052;2023-05-23T10:25:18;96548.56;;;28.12;69.79
56807;BME280;42687;42.524;12.052;2023-05-23T10:27:43;96553.34;;;28.10;69.94
56807;BME280;42687;42.524;12.052;2023-05-23T10:30:10;96546.63;;;27.99;70.13
56807;BME280;42687;42.524;12.052;2023-05-23T10:32:38;96553.75;;;28.07;69.84
56807;BME280;42687;42.524;12.052;2023-05-23T10:35:31;96542.66;;;27.88;70.73
56807;BME280;42687;42.524;12.052;2023-05-23T10:38:37;96553.03;;;27.85;71.00
56807;BME280;42687;42.524;12.052;2023-05-23T10:41:22;96552.03;;;27.99;70.34
56807;BME280;42687;42.524;12.052;2023-05-23T10:43:56;96551.41;;;27.97;70.00
56807;BME280;42687;42.524;12.052;2023-05-23T10:46:59;96550.75;;;27.82;69.75
56807;BME280;42687;42.524;12.052;2023-05-23T10:49:42;96548.41;;;27.65;70.09
56807;BME280;42687;42.524;12.052;2023-05-23T10:52:08;96545.69;;;27.58;69.55
56807;BME280;42687;42.524;12.052;2023-05-23T10:54:44;96554.38;;;27.47;71.13
56807;BME280;42687;42.524;12.052;2023-05-23T10:57:14;96545.19;;;27.41;71.36
56807;BME280;42687;42.524;12.052;2023-05-23T10:59:41;96547.78;;;27.63;70.88
56807;BME280;42687;42.524;12.052;2023-05-23T11:02:14;96551.78;;;27.80;70.09
56807;BME280;42687;42.524;12.052;2023-05-23T11:04:41;96548.88;;;27.75;70.56
56807;BME280;42687;42.524;12.052;2023-05-23T11:07:27;96542.00;;;27.73;70.09
56807;BME280;42687;42.524;12.052;2023-05-23T11:10:07;96540.19;;;27.93;69.44
56807;BME280;42687;42.524;12.052;2023-05-23T11:12:41;96544.84;;;28.20;69.03
56807;BME280;42687;42.524;12.052;2023-05-23T11:17:56;96538.16;;;28.02;68.08
56807;BME280;42687;42.524;12.052;2023-05-23T11:20:25;96529.66;;;28.19;67.83
56807;BME280;42687;42.524;12.052;2023-05-23T11:23:00;96505.06;;;27.93;67.18
56807;BME280;42687;42.524;12.052;2023-05-23T11:25:43;96526.31;;;28.03;67.38
56807;BME280;42687;42.524;12.052;2023-05-23T11:28:11;96536.25;;;27.96;67.24
56807;BME280;42687;42.524;12.052;2023-05-23T11:30:37;96529.22;;;28.02;66.98
56807;BME280;42687;42.524;12.052;2023-05-23T11:33:21;96534.41;;;28.10;66.32
56807;BME280;42687;42.524;12.052;2023-05-23T11:35:48;96522.56;;;28.18;66.62
56807;BME280;42687;42.524;12.052;2023-05-23T11:38:15;96519.44;;;28.07;67.06
56807;BME280;42687;42.524;12.052;2023-05-23T11:40:44;96528.75;;;27.91;67.33
56807;BME280;42687;42.524;12.052;2023-05-23T11:43:14;96529.50;;;27.65;67.65
56807;BME280;42687;42.524;12.052;2023-05-23T11:45:44;96530.16;;;27.67;67.96
56807;BME280;42687;42.524;12.052;2023-05-23T11:48:16;96521.16;;;27.53;67.93
56807;BME280;42687;42.524;12.052;2023-05-23T11:50:50;96526.44;;;27.33;68.55
56807;BME280;42687;42.524;12.052;2023-05-23T11:53:18;96524.19;;;27.37;68.75
56807;BME280;42687;42.524;12.052;2023-05-23T11:55:56;96519.28;;;27.47;68.36
56807;BME280;42687;42.524;12.052;2023-05-23T11:58:33;96515.72;;;27.46;67.80
56807;BME280;42687;42.524;12.052;2023-05-23T12:03:28;96516.69;;;27.87;67.19
56807;BME280;42687;42.524;12.052;2023-05-23T12:05:54;96504.22;;;28.00;66.71
56807;BME280;42687;42.524;12.052;2023-05-23T12:08:20;96493.47;;;28.26;66.33
56807;BME280;42687;42.524;12.052;2023-05-23T12:10:55;96506.78;;;28.48;65.29
56807;BME280;42687;42.524;12.052;2023-05-23T12:13:25;96500.13;;;28.71;65.06
56807;BME280;42687;42.524;12.052;2023-05-23T12:15:56;96495.31;;;28.59;65.30
56807;BME280;42687;42.524;12.052;2023-05-23T12:18:27;96506.78;;;28.41;65.95
56807;BME280;42687;42.524;12.052;2023-05-23T12:20:54;96497.22;;;28.39;66.06
56807;BME280;42687;42.524;12.052;2023-05-23T12:23:24;96498.00;;;27.99;66.93
56807;BME280;42687;42.524;12.052;2023-05-23T12:25:52;96504.22;;;27.24;67.98
56807;BME280;42687;42.524;12.052;2023-05-23T12:28:19;96499.47;;;26.91;69.17
56807;BME280;42687;42.524;12.052;2023-05-23T12:30:45;96490.91;;;26.81;69.38
56807;BME280;42687;42.524;12.052;2023-05-23T12:33:11;96488.09;;;26.96;69.21
56807;BME280;42687;42.524;12.052;2023-05-23T12:35:41;96493.72;;;27.01;69.37
56807;BME280;42687;42.524;12.052;2023-05-23T12:38:07;96479.78;;;26.97;69.78
56807;BME280;42687;42.524;12.052;2023-05-23T12:40:34;96482.88;;;26.59;69.91
56807;BME280;42687;42.524;12.052;2023-05-23T12:43:00;96481.88;;;26.39;70.46
56807;BME280;42687;42.524;12.052;2023-05-23T12:45:35;96482.91;;;26.38;70.64
56807;BME280;42687;42.524;12.052;2023-05-23T12:48:02;96469.84;;;26.35;71.14
56807;BME280;42687;42.524;12.052;2023-05-23T12:50:28;96480.56;;;26.28;71.45
56807;BME280;42687;42.524;12.052;2023-05-23T12:52:55;96446.53;;;25.98;71.77
56807;BME280;42687;42.524;12.052;2023-05-23T12:55:21;96480.69;;;25.98;71.90
56807;BME280;42687;42.524;12.052;2023-05-23T12:57:47;96486.00;;;25.91;72.47
56807;BME280;42687;42.524;12.052;2023-05-23T13:00:13;96484.00;;;25.72;72.74
56807;BME280;42687;42.524;12.052;2023-05-23T13:02:39;96474.78;;;25.44;73.12
56807;BME280;42687;42.524;12.052;2023-05-23T13:05:05;96480.16;;;25.44;72.95